Benson, MN

7:13 AM CST on February 10, 2016 (GMT -0600)
Benson Municipal | | Change Station
CLOSE
Current Station
Airport
Location: Benson,
Elevation: 1040 ft
Nearby Weather Stations

Elev 1040 ft 45.33 °N, 95.65 °W | Updated 20 minutes ago

Overcast
Overcast
7 °F
Feels Like 7 °F
N
0
Wind Variable Wind from North

Today
High -- | Low -- °F
--% Chance of Precip.
Yesterday
High -- | Low -- °F
Precip. -- in
Pressure 30.08 in
Visibility 3.0 miles
Clouds Mostly Cloudy 3300 ft
Overcast 5000 ft
Dew Point 0 °F
Humidity 72%
Rainfall 0.00 in
Snow Depth Not available.
7:32 AM 5:42 PM
Waxing Crescent, 5% visible
METAR KBBB 101253Z AUTO 00000KT 3SM UP BKN033 OVC050 M14/M18 A3008 RMK AO2
Pressure 30.08 in
Visibility 3.0 miles
Clouds Mostly Cloudy 3300 ft
Overcast 5000 ft
Dew Point 0 °F
Humidity 72%
Rainfall 0.00 in
Snow Depth Not available.
7:32 AM 5:42 PM
Waxing Crescent, 5% visible
METAR KBBB 101253Z AUTO 00000KT 3SM UP BKN033 OVC050 M14/M18 A3008 RMK AO2

10-Day Weather Forecast

Almanac

Astronomy

Feb. 10, 2016 Rise Set
Actual Time
Civil Twilight
Nautical Twilight
Astronomical Twilight
Moon
Length of Visible Light
Length of Day
Tomorrow will be .
, % of the Moon is Illuminated

Today's Extremes

State Highs State Lows

Community

WunderPhotos

Upload Photos

1,891,839 photos uploaded!

WunderBlog® & News

Nearby

Air Quality

  Air Quality AQ Index Pollutant
Not available.

Snow Depth

Station Depth Elevation

Earthquake Activity

City Distance Mag. Time & Date
Minimum magnitude displayed is 2.5.

Coastal Water Temperatures

Place Temperature

Stations

Nearby Weather Stations

Station Location Temp. Windchill Dew Point Humidity Wind Precip. Elev Updated Type
                   

Watches & Warnings

There are currently no watches in effect.